sensor_id;sensor_type;location;lat;lon;timestamp;P1;durP1;ratioP1;P2;durP2;ratioP2
67554;SDS011;54385;53.516;49.456;2023-08-24T00:01:27;6.40;;;4.18;;
67554;SDS011;54385;53.516;49.456;2023-08-24T00:03:53;6.78;;;4.40;;
67554;SDS011;54385;53.516;49.456;2023-08-24T00:06:20;6.03;;;4.30;;
67554;SDS011;54385;53.516;49.456;2023-08-24T00:08:46;6.35;;;4.10;;
67554;SDS011;54385;53.516;49.456;2023-08-24T00:11:13;6.72;;;4.25;;
67554;SDS011;54385;53.516;49.456;2023-08-24T00:13:41;6.35;;;4.28;;
67554;SDS011;54385;53.516;49.456;2023-08-24T00:16:19;6.90;;;5.30;;
67554;SDS011;54385;53.516;49.456;2023-08-24T00:18:46;9.48;;;5.47;;
67554;SDS011;54385;53.516;49.456;2023-08-24T00:21:13;8.30;;;5.47;;
67554;SDS011;54385;53.516;49.456;2023-08-24T00:23:45;9.23;;;5.30;;
67554;SDS011;54385;53.516;49.456;2023-08-24T00:26:11;7.97;;;4.90;;
67554;SDS011;54385;53.516;49.456;2023-08-24T00:28:38;8.68;;;5.57;;
67554;SDS011;54385;53.516;49.456;2023-08-24T00:31:08;9.80;;;6.38;;
67554;SDS011;54385;53.516;49.456;2023-08-24T00:33:35;11.38;;;6.38;;
67554;SDS011;54385;53.516;49.456;2023-08-24T00:36:02;8.70;;;5.95;;
67554;SDS011;54385;53.516;49.456;2023-08-24T00:38:29;11.27;;;6.70;;
67554;SDS011;54385;53.516;49.456;2023-08-24T00:40:56;10.38;;;5.32;;
67554;SDS011;54385;53.516;49.456;2023-08-24T00:43:27;7.43;;;5.30;;
67554;SDS011;54385;53.516;49.456;2023-08-24T00:45:59;7.28;;;4.82;;
67554;SDS011;54385;53.516;49.456;2023-08-24T00:50:55;7.45;;;4.75;;
67554;SDS011;54385;53.516;49.456;2023-08-24T00:53:25;6.95;;;5.07;;
67554;SDS011;54385;53.516;49.456;2023-08-24T00:55:53;7.18;;;4.85;;
67554;SDS011;54385;53.516;49.456;2023-08-24T00:58:20;7.60;;;4.65;;
67554;SDS011;54385;53.516;49.456;2023-08-24T01:00:53;8.55;;;4.85;;
67554;SDS011;54385;53.516;49.456;2023-08-24T01:03:22;6.30;;;4.93;;
67554;SDS011;54385;53.516;49.456;2023-08-24T01:05:49;6.60;;;4.22;;
67554;SDS011;54385;53.516;49.456;2023-08-24T01:08:16;6.05;;;4.70;;
67554;SDS011;54385;53.516;49.456;2023-08-24T01:10:48;7.88;;;5.00;;
67554;SDS011;54385;53.516;49.456;2023-08-24T01:16:22;7.60;;;5.03;;
67554;SDS011;54385;53.516;49.456;2023-08-24T01:18:54;7.18;;;4.07;;
67554;SDS011;54385;53.516;49.456;2023-08-24T01:21:22;8.00;;;4.78;;
67554;SDS011;54385;53.516;49.456;2023-08-24T01:23:53;5.82;;;4.55;;
67554;SDS011;54385;53.516;49.456;2023-08-24T01:26:42;7.03;;;3.90;;
67554;SDS011;54385;53.516;49.456;2023-08-24T01:29:10;8.27;;;4.35;;
67554;SDS011;54385;53.516;49.456;2023-08-24T01:31:36;5.60;;;3.75;;
67554;SDS011;54385;53.516;49.456;2023-08-24T01:34:03;5.18;;;3.92;;
67554;SDS011;54385;53.516;49.456;2023-08-24T01:36:30;7.38;;;4.30;;
67554;SDS011;54385;53.516;49.456;2023-08-24T01:39:02;6.18;;;4.22;;
67554;SDS011;54385;53.516;49.456;2023-08-24T01:41:38;8.65;;;4.35;;
67554;SDS011;54385;53.516;49.456;2023-08-24T01:44:09;9.48;;;4.60;;
67554;SDS011;54385;53.516;49.456;2023-08-24T01:46:38;10.13;;;4.65;;
67554;SDS011;54385;53.516;49.456;2023-08-24T01:49:08;8.05;;;4.30;;
67554;SDS011;54385;53.516;49.456;2023-08-24T01:51:37;6.55;;;4.50;;
67554;SDS011;54385;53.516;49.456;2023-08-24T01:54:04;7.82;;;5.28;;
67554;SDS011;54385;53.516;49.456;2023-08-24T01:56:31;7.57;;;4.78;;
67554;SDS011;54385;53.516;49.456;2023-08-24T01:58:57;7.80;;;4.60;;
67554;SDS011;54385;53.516;49.456;2023-08-24T02:01:24;8.40;;;4.25;;
67554;SDS011;54385;53.516;49.456;2023-08-24T02:03:50;11.02;;;4.60;;
67554;SDS011;54385;53.516;49.456;2023-08-24T02:06:17;6.35;;;4.18;;
67554;SDS011;54385;53.516;49.456;2023-08-24T02:08:43;8.48;;;4.00;;
67554;SDS011;54385;53.516;49.456;2023-08-24T02:11:10;9.70;;;4.43;;
67554;SDS011;54385;53.516;49.456;2023-08-24T02:13:36;8.60;;;4.30;;
67554;SDS011;54385;53.516;49.456;2023-08-24T02:16:06;10.02;;;4.80;;
67554;SDS011;54385;53.516;49.456;2023-08-24T02:18:37;5.63;;;4.00;;
67554;SDS011;54385;53.516;49.456;2023-08-24T02:21:07;8.63;;;4.43;;
67554;SDS011;54385;53.516;49.456;2023-08-24T02:23:37;7.75;;;4.07;;
67554;SDS011;54385;53.516;49.456;2023-08-24T02:26:04;7.78;;;4.45;;
67554;SDS011;54385;53.516;49.456;2023-08-24T02:28:36;6.75;;;4.18;;
67554;SDS011;54385;53.516;49.456;2023-08-24T02:31:03;8.05;;;4.40;;
67554;SDS011;54385;53.516;49.456;2023-08-24T02:33:30;9.75;;;4.85;;
67554;SDS011;54385;53.516;49.456;2023-08-24T02:35:58;9.27;;;4.97;;
67554;SDS011;54385;53.516;49.456;2023-08-24T02:38:24;15.00;;;4.70;;
67554;SDS011;54385;53.516;49.456;2023-08-24T02:41:04;12.40;;;4.90;;
67554;SDS011;54385;53.516;49.456;2023-08-24T02:43:31;11.23;;;3.75;;
67554;SDS011;54385;53.516;49.456;2023-08-24T02:46:01;5.63;;;3.33;;
67554;SDS011;54385;53.516;49.456;2023-08-24T02:48:29;9.43;;;4.03;;
67554;SDS011;54385;53.516;49.456;2023-08-24T02:50:59;10.10;;;4.32;;
67554;SDS011;54385;53.516;49.456;2023-08-24T02:53:28;7.32;;;4.32;;
67554;SDS011;54385;53.516;49.456;2023-08-24T02:55:55;6.05;;;3.20;;
67554;SDS011;54385;53.516;49.456;2023-08-24T02:58:22;7.05;;;3.80;;
67554;SDS011;54385;53.516;49.456;2023-08-24T03:00:48;7.70;;;3.25;;
67554;SDS011;54385;53.516;49.456;2023-08-24T03:03:15;9.32;;;4.82;;
67554;SDS011;54385;53.516;49.456;2023-08-24T03:05:55;5.47;;;3.42;;
67554;SDS011;54385;53.516;49.456;2023-08-24T03:08:22;9.10;;;3.67;;
67554;SDS011;54385;53.516;49.456;2023-08-24T03:10:50;16.33;;;4.65;;
67554;SDS011;54385;53.516;49.456;2023-08-24T03:13:17;7.47;;;4.20;;
67554;SDS011;54385;53.516;49.456;2023-08-24T03:15:43;8.13;;;3.85;;
67554;SDS011;54385;53.516;49.456;2023-08-24T03:18:14;7.68;;;3.47;;
67554;SDS011;54385;53.516;49.456;2023-08-24T03:20:41;5.18;;;3.25;;
67554;SDS011;54385;53.516;49.456;2023-08-24T03:23:09;8.40;;;3.50;;
67554;SDS011;54385;53.516;49.456;2023-08-24T03:25:36;9.75;;;3.47;;
67554;SDS011;54385;53.516;49.456;2023-08-24T03:28:05;5.50;;;3.42;;
67554;SDS011;54385;53.516;49.456;2023-08-24T03:30:35;6.03;;;3.58;;
67554;SDS011;54385;53.516;49.456;2023-08-24T03:33:03;9.10;;;3.67;;
67554;SDS011;54385;53.516;49.456;2023-08-24T03:35:30;10.13;;;3.53;;
67554;SDS011;54385;53.516;49.456;2023-08-24T03:37:58;10.60;;;3.33;;
67554;SDS011;54385;53.516;49.456;2023-08-24T03:40:24;6.47;;;3.63;;
67554;SDS011;54385;53.516;49.456;2023-08-24T03:42:50;10.50;;;3.97;;
67554;SDS011;54385;53.516;49.456;2023-08-24T03:45:19;7.43;;;4.00;;
67554;SDS011;54385;53.516;49.456;2023-08-24T03:47:46;10.27;;;4.15;;
67554;SDS011;54385;53.516;49.456;2023-08-24T03:50:13;9.70;;;3.95;;
67554;SDS011;54385;53.516;49.456;2023-08-24T03:52:40;6.93;;;3.50;;
67554;SDS011;54385;53.516;49.456;2023-08-24T03:55:07;7.65;;;3.55;;
67554;SDS011;54385;53.516;49.456;2023-08-24T03:57:37;9.48;;;4.05;;
67554;SDS011;54385;53.516;49.456;2023-08-24T04:00:11;10.05;;;3.83;;
67554;SDS011;54385;53.516;49.456;2023-08-24T04:02:41;10.18;;;4.35;;
67554;SDS011;54385;53.516;49.456;2023-08-24T04:05:07;7.40;;;3.45;;
67554;SDS011;54385;53.516;49.456;2023-08-24T04:07:34;7.32;;;3.90;;
67554;SDS011;54385;53.516;49.456;2023-08-24T04:10:04;11.43;;;3.97;;
67554;SDS011;54385;53.516;49.456;2023-08-24T04:12:32;12.30;;;4.05;;
67554;SDS011;54385;53.516;49.456;2023-08-24T04:14:59;8.00;;;3.50;;
67554;SDS011;54385;53.516;49.456;2023-08-24T04:17:26;11.07;;;3.70;;
67554;SDS011;54385;53.516;49.456;2023-08-24T04:19:52;7.13;;;3.45;;
67554;SDS011;54385;53.516;49.456;2023-08-24T04:22:19;6.63;;;3.03;;
67554;SDS011;54385;53.516;49.456;2023-08-24T04:24:45;8.43;;;2.97;;
67554;SDS011;54385;53.516;49.456;2023-08-24T04:27:12;6.78;;;3.35;;
67554;SDS011;54385;53.516;49.456;2023-08-24T04:29:39;15.27;;;3.83;;
67554;SDS011;54385;53.516;49.456;2023-08-24T04:32:08;6.85;;;3.17;;
67554;SDS011;54385;53.516;49.456;2023-08-24T04:34:35;6.05;;;3.35;;
67554;SDS011;54385;53.516;49.456;2023-08-24T04:37:02;5.50;;;2.33;;
67554;SDS011;54385;53.516;49.456;2023-08-24T04:39:29;7.82;;;3.30;;
67554;SDS011;54385;53.516;49.456;2023-08-24T04:41:56;6.68;;;2.80;;
67554;SDS011;54385;53.516;49.456;2023-08-24T04:44:28;7.18;;;3.13;;
67554;SDS011;54385;53.516;49.456;2023-08-24T04:46:55;6.30;;;4.00;;
67554;SDS011;54385;53.516;49.456;2023-08-24T04:49:22;9.27;;;3.70;;
67554;SDS011;54385;53.516;49.456;2023-08-24T04:51:49;9.18;;;3.92;;
67554;SDS011;54385;53.516;49.456;2023-08-24T04:54:18;10.80;;;3.72;;
67554;SDS011;54385;53.516;49.456;2023-08-24T04:56:45;6.55;;;4.00;;
67554;SDS011;54385;53.516;49.456;2023-08-24T04:59:11;5.45;;;3.78;;
67554;SDS011;54385;53.516;49.456;2023-08-24T05:01:37;9.15;;;3.55;;
67554;SDS011;54385;53.516;49.456;2023-08-24T05:04:04;5.32;;;3.05;;
67554;SDS011;54385;53.516;49.456;2023-08-24T05:06:30;5.15;;;3.28;;
67554;SDS011;54385;53.516;49.456;2023-08-24T05:09:07;7.72;;;3.13;;
67554;SDS011;54385;53.516;49.456;2023-08-24T05:12:16;8.75;;;2.95;;
67554;SDS011;54385;53.516;49.456;2023-08-24T05:14:43;7.40;;;3.20;;
67554;SDS011;54385;53.516;49.456;2023-08-24T05:17:09;6.53;;;2.65;;
67554;SDS011;54385;53.516;49.456;2023-08-24T05:19:36;5.80;;;2.90;;
67554;SDS011;54385;53.516;49.456;2023-08-24T05:22:02;5.65;;;2.42;;
67554;SDS011;54385;53.516;49.456;2023-08-24T05:24:29;9.10;;;2.88;;
67554;SDS011;54385;53.516;49.456;2023-08-24T05:26:57;4.63;;;2.42;;
67554;SDS011;54385;53.516;49.456;2023-08-24T05:29:24;7.07;;;2.47;;
67554;SDS011;54385;53.516;49.456;2023-08-24T05:31:55;5.10;;;2.50;;
67554;SDS011;54385;53.516;49.456;2023-08-24T05:34:21;4.10;;;2.33;;
67554;SDS011;54385;53.516;49.456;2023-08-24T05:36:48;6.38;;;2.55;;
67554;SDS011;54385;53.516;49.456;2023-08-24T05:39:14;3.50;;;2.13;;
67554;SDS011;54385;53.516;49.456;2023-08-24T05:41:40;6.35;;;2.20;;
67554;SDS011;54385;53.516;49.456;2023-08-24T05:44:07;6.07;;;2.20;;
67554;SDS011;54385;53.516;49.456;2023-08-24T05:46:33;6.30;;;2.80;;
67554;SDS011;54385;53.516;49.456;2023-08-24T05:49:02;4.80;;;2.80;;
67554;SDS011;54385;53.516;49.456;2023-08-24T05:51:29;5.18;;;2.47;;
67554;SDS011;54385;53.516;49.456;2023-08-24T05:53:55;4.65;;;2.30;;
67554;SDS011;54385;53.516;49.456;2023-08-24T05:56:24;4.72;;;2.65;;
67554;SDS011;54385;53.516;49.456;2023-08-24T05:58:50;9.35;;;2.83;;
67554;SDS011;54385;53.516;49.456;2023-08-24T06:01:16;4.03;;;2.40;;
67554;SDS011;54385;53.516;49.456;2023-08-24T06:03:50;6.50;;;2.20;;
67554;SDS011;54385;53.516;49.456;2023-08-24T06:06:27;8.95;;;4.00;;
67554;SDS011;54385;53.516;49.456;2023-08-24T06:09:02;3.72;;;2.40;;
67554;SDS011;54385;53.516;49.456;2023-08-24T06:11:32;7.45;;;3.80;;
67554;SDS011;54385;53.516;49.456;2023-08-24T06:13:59;9.90;;;5.13;;
67554;SDS011;54385;53.516;49.456;2023-08-24T06:16:25;9.18;;;3.97;;
67554;SDS011;54385;53.516;49.456;2023-08-24T06:18:52;9.07;;;4.10;;
67554;SDS011;54385;53.516;49.456;2023-08-24T06:21:18;6.10;;;3.55;;
67554;SDS011;54385;53.516;49.456;2023-08-24T06:23:45;7.03;;;2.40;;
67554;SDS011;54385;53.516;49.456;2023-08-24T06:26:13;7.18;;;3.20;;
67554;SDS011;54385;53.516;49.456;2023-08-24T06:28:40;3.65;;;2.63;;
67554;SDS011;54385;53.516;49.456;2023-08-24T06:31:07;6.22;;;3.22;;
67554;SDS011;54385;53.516;49.456;2023-08-24T06:33:37;5.60;;;3.58;;
67554;SDS011;54385;53.516;49.456;2023-08-24T06:36:04;6.45;;;4.20;;
67554;SDS011;54385;53.516;49.456;2023-08-24T06:38:31;7.22;;;4.75;;
67554;SDS011;54385;53.516;49.456;2023-08-24T06:40:58;5.78;;;4.13;;
67554;SDS011;54385;53.516;49.456;2023-08-24T06:43:25;7.15;;;3.25;;
67554;SDS011;54385;53.516;49.456;2023-08-24T06:45:55;9.45;;;4.15;;
67554;SDS011;54385;53.516;49.456;2023-08-24T06:48:22;8.25;;;3.88;;
67554;SDS011;54385;53.516;49.456;2023-08-24T06:51:00;8.23;;;3.42;;
67554;SDS011;54385;53.516;49.456;2023-08-24T06:53:27;6.75;;;3.22;;
67554;SDS011;54385;53.516;49.456;2023-08-24T06:55:56;4.82;;;3.28;;
67554;SDS011;54385;53.516;49.456;2023-08-24T06:58:23;9.13;;;3.30;;
67554;SDS011;54385;53.516;49.456;2023-08-24T07:00:50;7.07;;;3.10;;
67554;SDS011;54385;53.516;49.456;2023-08-24T07:03:17;5.80;;;2.83;;
67554;SDS011;54385;53.516;49.456;2023-08-24T07:05:45;6.57;;;2.38;;
67554;SDS011;54385;53.516;49.456;2023-08-24T07:08:12;6.93;;;3.00;;
67554;SDS011;54385;53.516;49.456;2023-08-24T07:10:43;10.13;;;2.95;;
67554;SDS011;54385;53.516;49.456;2023-08-24T07:13:13;7.93;;;3.28;;
67554;SDS011;54385;53.516;49.456;2023-08-24T07:15:41;7.50;;;3.60;;
67554;SDS011;54385;53.516;49.456;2023-08-24T07:18:08;4.10;;;3.35;;
67554;SDS011;54385;53.516;49.456;2023-08-24T07:20:36;6.38;;;2.80;;
67554;SDS011;54385;53.516;49.456;2023-08-24T07:23:03;6.28;;;3.50;;
67554;SDS011;54385;53.516;49.456;2023-08-24T07:25:30;6.15;;;4.40;;
67554;SDS011;54385;53.516;49.456;2023-08-24T07:27:57;5.90;;;2.92;;
67554;SDS011;54385;53.516;49.456;2023-08-24T07:30:25;5.75;;;3.00;;
67554;SDS011;54385;53.516;49.456;2023-08-24T07:33:12;4.88;;;3.38;;
67554;SDS011;54385;53.516;49.456;2023-08-24T07:35:44;4.13;;;2.90;;
67554;SDS011;54385;53.516;49.456;2023-08-24T07:38:20;5.13;;;3.00;;
67554;SDS011;54385;53.516;49.456;2023-08-24T07:40:51;3.70;;;3.08;;
67554;SDS011;54385;53.516;49.456;2023-08-24T07:43:23;4.30;;;2.83;;
67554;SDS011;54385;53.516;49.456;2023-08-24T07:45:50;5.10;;;3.00;;
67554;SDS011;54385;53.516;49.456;2023-08-24T07:48:18;3.88;;;2.60;;
67554;SDS011;54385;53.516;49.456;2023-08-24T07:50:45;5.75;;;2.78;;
67554;SDS011;54385;53.516;49.456;2023-08-24T07:53:12;5.32;;;2.50;;
67554;SDS011;54385;53.516;49.456;2023-08-24T07:55:40;5.55;;;2.70;;
67554;SDS011;54385;53.516;49.456;2023-08-24T07:58:11;5.65;;;3.15;;
67554;SDS011;54385;53.516;49.456;2023-08-24T08:00:38;12.88;;;7.32;;
67554;SDS011;54385;53.516;49.456;2023-08-24T08:03:05;15.63;;;10.50;;
67554;SDS011;54385;53.516;49.456;2023-08-24T08:05:32;19.33;;;14.95;;
67554;SDS011;54385;53.516;49.456;2023-08-24T08:07:59;19.92;;;14.13;;
67554;SDS011;54385;53.516;49.456;2023-08-24T08:10:25;10.13;;;6.47;;
67554;SDS011;54385;53.516;49.456;2023-08-24T08:12:52;13.80;;;11.50;;
67554;SDS011;54385;53.516;49.456;2023-08-24T08:15:20;9.93;;;6.65;;
67554;SDS011;54385;53.516;49.456;2023-08-24T08:17:47;7.10;;;5.18;;
67554;SDS011;54385;53.516;49.456;2023-08-24T08:20:16;8.38;;;5.38;;
67554;SDS011;54385;53.516;49.456;2023-08-24T08:22:43;9.55;;;5.72;;
67554;SDS011;54385;53.516;49.456;2023-08-24T08:25:10;6.35;;;4.22;;
67554;SDS011;54385;53.516;49.456;2023-08-24T08:27:38;8.15;;;5.03;;
67554;SDS011;54385;53.516;49.456;2023-08-24T08:30:05;6.30;;;4.13;;
67554;SDS011;54385;53.516;49.456;2023-08-24T08:32:33;7.90;;;4.57;;
67554;SDS011;54385;53.516;49.456;2023-08-24T08:34:59;7.43;;;4.07;;
67554;SDS011;54385;53.516;49.456;2023-08-24T08:37:27;6.32;;;3.90;;
67554;SDS011;54385;53.516;49.456;2023-08-24T08:40:02;4.10;;;2.65;;
67554;SDS011;54385;53.516;49.456;2023-08-24T08:42:49;6.90;;;3.20;;
67554;SDS011;54385;53.516;49.456;2023-08-24T08:45:25;6.97;;;3.70;;
67554;SDS011;54385;53.516;49.456;2023-08-24T08:48:03;4.57;;;3.15;;
67554;SDS011;54385;53.516;49.456;2023-08-24T08:50:33;5.32;;;3.10;;
67554;SDS011;54385;53.516;49.456;2023-08-24T08:53:01;7.45;;;4.00;;
67554;SDS011;54385;53.516;49.456;2023-08-24T08:55:28;6.47;;;3.90;;
67554;SDS011;54385;53.516;49.456;2023-08-24T08:57:56;5.38;;;2.90;;
67554;SDS011;54385;53.516;49.456;2023-08-24T09:00:24;7.82;;;3.80;;
67554;SDS011;54385;53.516;49.456;2023-08-24T09:02:53;5.38;;;3.60;;
67554;SDS011;54385;53.516;49.456;2023-08-24T09:05:21;6.28;;;3.30;;
67554;SDS011;54385;53.516;49.456;2023-08-24T09:07:49;6.43;;;3.15;;
67554;SDS011;54385;53.516;49.456;2023-08-24T09:10:16;10.32;;;3.88;;
67554;SDS011;54385;53.516;49.456;2023-08-24T09:12:46;6.00;;;3.25;;
67554;SDS011;54385;53.516;49.456;2023-08-24T09:15:13;4.63;;;2.60;;
67554;SDS011;54385;53.516;49.456;2023-08-24T09:17:43;5.65;;;2.70;;
67554;SDS011;54385;53.516;49.456;2023-08-24T09:20:11;5.22;;;2.65;;
67554;SDS011;54385;53.516;49.456;2023-08-24T09:22:41;5.88;;;2.92;;
67554;SDS011;54385;53.516;49.456;2023-08-24T09:25:10;4.78;;;2.90;;
67554;SDS011;54385;53.516;49.456;2023-08-24T09:27:37;5.75;;;2.75;;
67554;SDS011;54385;53.516;49.456;2023-08-24T09:30:04;7.50;;;3.20;;
67554;SDS011;54385;53.516;49.456;2023-08-24T09:32:34;3.97;;;2.83;;
67554;SDS011;54385;53.516;49.456;2023-08-24T09:35:02;8.60;;;3.08;;
67554;SDS011;54385;53.516;49.456;2023-08-24T09:37:36;6.75;;;3.13;;
67554;SDS011;54385;53.516;49.456;2023-08-24T09:40:05;4.47;;;2.85;;
67554;SDS011;54385;53.516;49.456;2023-08-24T09:42:38;3.85;;;2.80;;
67554;SDS011;54385;53.516;49.456;2023-08-24T09:45:06;4.45;;;2.75;;
67554;SDS011;54385;53.516;49.456;2023-08-24T09:47:44;6.97;;;2.83;;
67554;SDS011;54385;53.516;49.456;2023-08-24T09:50:12;5.47;;;2.67;;
67554;SDS011;54385;53.516;49.456;2023-08-24T09:52:40;4.32;;;3.05;;
67554;SDS011;54385;53.516;49.456;2023-08-24T09:55:11;4.30;;;2.60;;
67554;SDS011;54385;53.516;49.456;2023-08-24T09:57:41;4.47;;;2.88;;
67554;SDS011;54385;53.516;49.456;2023-08-24T10:00:10;5.03;;;2.72;;
67554;SDS011;54385;53.516;49.456;2023-08-24T10:02:50;5.13;;;3.25;;
67554;SDS011;54385;53.516;49.456;2023-08-24T10:05:20;7.57;;;3.47;;
67554;SDS011;54385;53.516;49.456;2023-08-24T10:07:52;5.15;;;2.72;;
67554;SDS011;54385;53.516;49.456;2023-08-24T10:10:20;6.20;;;2.88;;
67554;SDS011;54385;53.516;49.456;2023-08-24T10:12:56;3.92;;;2.45;;
67554;SDS011;54385;53.516;49.456;2023-08-24T10:15:25;6.05;;;2.80;;
67554;SDS011;54385;53.516;49.456;2023-08-24T10:17:52;5.88;;;2.60;;
67554;SDS011;54385;53.516;49.456;2023-08-24T10:20:22;4.05;;;2.80;;
67554;SDS011;54385;53.516;49.456;2023-08-24T10:22:50;3.33;;;2.58;;
67554;SDS011;54385;53.516;49.456;2023-08-24T10:25:17;4.60;;;2.85;;
67554;SDS011;54385;53.516;49.456;2023-08-24T10:27:44;3.90;;;2.67;;
67554;SDS011;54385;53.516;49.456;2023-08-24T10:30:13;4.68;;;2.60;;
67554;SDS011;54385;53.516;49.456;2023-08-24T10:32:41;3.22;;;2.47;;
67554;SDS011;54385;53.516;49.456;2023-08-24T10:35:11;4.47;;;2.35;;
67554;SDS011;54385;53.516;49.456;2023-08-24T10:37:41;5.47;;;2.53;;
67554;SDS011;54385;53.516;49.456;2023-08-24T10:40:12;5.03;;;2.63;;
67554;SDS011;54385;53.516;49.456;2023-08-24T10:42:45;4.00;;;2.50;;
67554;SDS011;54385;53.516;49.456;2023-08-24T10:45:13;5.05;;;2.58;;
67554;SDS011;54385;53.516;49.456;2023-08-24T10:47:44;4.43;;;2.85;;
67554;SDS011;54385;53.516;49.456;2023-08-24T10:50:14;4.50;;;2.83;;
67554;SDS011;54385;53.516;49.456;2023-08-24T10:52:42;5.45;;;2.80;;
67554;SDS011;54385;53.516;49.456;2023-08-24T10:55:25;11.27;;;3.35;;
67554;SDS011;54385;53.516;49.456;2023-08-24T10:57:59;5.30;;;2.78;;
67554;SDS011;54385;53.516;49.456;2023-08-24T11:00:27;6.28;;;3.00;;
67554;SDS011;54385;53.516;49.456;2023-08-24T11:02:54;6.88;;;2.63;;
67554;SDS011;54385;53.516;49.456;2023-08-24T11:05:27;5.45;;;3.08;;
67554;SDS011;54385;53.516;49.456;2023-08-24T11:08:04;5.07;;;2.60;;
67554;SDS011;54385;53.516;49.456;2023-08-24T11:13:06;5.43;;;2.70;;
67554;SDS011;54385;53.516;49.456;2023-08-24T11:15:42;6.32;;;3.00;;
67554;SDS011;54385;53.516;49.456;2023-08-24T11:20:49;9.07;;;3.25;;
67554;SDS011;54385;53.516;49.456;2023-08-24T11:23:21;6.28;;;2.97;;
67554;SDS011;54385;53.516;49.456;2023-08-24T11:25:50;5.72;;;3.00;;
67554;SDS011;54385;53.516;49.456;2023-08-24T11:28:22;5.75;;;2.90;;
67554;SDS011;54385;53.516;49.456;2023-08-24T11:33:31;4.70;;;2.80;;
67554;SDS011;54385;53.516;49.456;2023-08-24T11:35:59;4.30;;;2.35;;
67554;SDS011;54385;53.516;49.456;2023-08-24T11:38:35;5.18;;;2.80;;
67554;SDS011;54385;53.516;49.456;2023-08-24T11:41:10;6.35;;;2.78;;
67554;SDS011;54385;53.516;49.456;2023-08-24T11:43:45;6.68;;;2.60;;
67554;SDS011;54385;53.516;49.456;2023-08-24T11:46:17;3.97;;;2.60;;
67554;SDS011;54385;53.516;49.456;2023-08-24T11:48:44;3.60;;;2.35;;
67554;SDS011;54385;53.516;49.456;2023-08-24T11:51:12;3.80;;;2.75;;
67554;SDS011;54385;53.516;49.456;2023-08-24T11:53:40;7.07;;;2.90;;
67554;SDS011;54385;53.516;49.456;2023-08-24T11:56:11;3.85;;;2.70;;
67554;SDS011;54385;53.516;49.456;2023-08-24T11:58:39;4.13;;;2.60;;
67554;SDS011;54385;53.516;49.456;2023-08-24T12:01:10;3.75;;;2.35;;
67554;SDS011;54385;53.516;49.456;2023-08-24T12:03:38;3.58;;;2.28;;
67554;SDS011;54385;53.516;49.456;2023-08-24T12:06:15;4.05;;;2.83;;
67554;SDS011;54385;53.516;49.456;2023-08-24T12:08:45;3.97;;;2.22;;
67554;SDS011;54385;53.516;49.456;2023-08-24T12:11:13;5.18;;;2.80;;
67554;SDS011;54385;53.516;49.456;2023-08-24T12:13:45;4.85;;;2.53;;
67554;SDS011;54385;53.516;49.456;2023-08-24T12:16:15;5.20;;;2.80;;
67554;SDS011;54385;53.516;49.456;2023-08-24T12:18:47;4.25;;;2.70;;
67554;SDS011;54385;53.516;49.456;2023-08-24T12:21:15;4.20;;;2.47;;
67554;SDS011;54385;53.516;49.456;2023-08-24T12:23:41;5.07;;;2.75;;
67554;SDS011;54385;53.516;49.456;2023-08-24T12:26:08;3.78;;;2.80;;
67554;SDS011;54385;53.516;49.456;2023-08-24T12:28:43;5.28;;;2.65;;
67554;SDS011;54385;53.516;49.456;2023-08-24T12:31:09;4.03;;;2.40;;
67554;SDS011;54385;53.516;49.456;2023-08-24T12:33:40;4.93;;;2.60;;
67554;SDS011;54385;53.516;49.456;2023-08-24T12:36:06;4.85;;;2.80;;
67554;SDS011;54385;53.516;49.456;2023-08-24T12:38:33;3.28;;;2.50;;
67554;SDS011;54385;53.516;49.456;2023-08-24T12:41:01;4.10;;;2.80;;
67554;SDS011;54385;53.516;49.456;2023-08-24T12:43:28;4.07;;;2.55;;
67554;SDS011;54385;53.516;49.456;2023-08-24T12:45:54;4.35;;;2.70;;
67554;SDS011;54385;53.516;49.456;2023-08-24T12:48:21;3.80;;;2.40;;
67554;SDS011;54385;53.516;49.456;2023-08-24T12:50:47;5.30;;;3.03;;
67554;SDS011;54385;53.516;49.456;2023-08-24T12:53:13;4.07;;;2.70;;
67554;SDS011;54385;53.516;49.456;2023-08-24T12:55:40;4.80;;;2.60;;
67554;SDS011;54385;53.516;49.456;2023-08-24T12:58:06;3.10;;;2.42;;
67554;SDS011;54385;53.516;49.456;2023-08-24T13:00:33;3.97;;;2.40;;
67554;SDS011;54385;53.516;49.456;2023-08-24T13:02:59;4.72;;;2.70;;
67554;SDS011;54385;53.516;49.456;2023-08-24T13:05:26;4.18;;;2.30;;
67554;SDS011;54385;53.516;49.456;2023-08-24T13:07:53;3.65;;;2.65;;
67554;SDS011;54385;53.516;49.456;2023-08-24T13:10:20;3.67;;;2.55;;
67554;SDS011;54385;53.516;49.456;2023-08-24T13:12:46;3.08;;;2.45;;
67554;SDS011;54385;53.516;49.456;2023-08-24T13:15:13;4.80;;;2.55;;
67554;SDS011;54385;53.516;49.456;2023-08-24T13:17:40;2.75;;;2.10;;
67554;SDS011;54385;53.516;49.456;2023-08-24T13:20:07;3.63;;;2.45;;
67554;SDS011;54385;53.516;49.456;2023-08-24T13:22:34;3.65;;;2.50;;
67554;SDS011;54385;53.516;49.456;2023-08-24T13:25:00;2.90;;;2.53;;
67554;SDS011;54385;53.516;49.456;2023-08-24T13:27:27;3.63;;;2.30;;
67554;SDS011;54385;53.516;49.456;2023-08-24T13:29:56;3.28;;;2.38;;
67554;SDS011;54385;53.516;49.456;2023-08-24T13:34:52;3.78;;;2.40;;
67554;SDS011;54385;53.516;49.456;2023-08-24T13:37:19;3.30;;;2.53;;
67554;SDS011;54385;53.516;49.456;2023-08-24T13:39:45;4.47;;;2.42;;
67554;SDS011;54385;53.516;49.456;2023-08-24T13:42:11;3.88;;;2.28;;
67554;SDS011;54385;53.516;49.456;2023-08-24T13:44:39;2.92;;;2.40;;
67554;SDS011;54385;53.516;49.456;2023-08-24T13:47:06;3.40;;;2.33;;
67554;SDS011;54385;53.516;49.456;2023-08-24T13:49:32;3.22;;;2.33;;
67554;SDS011;54385;53.516;49.456;2023-08-24T13:52:00;2.67;;;2.17;;
67554;SDS011;54385;53.516;49.456;2023-08-24T13:54:29;3.92;;;2.28;;
67554;SDS011;54385;53.516;49.456;2023-08-24T13:56:57;3.97;;;2.22;;
67554;SDS011;54385;53.516;49.456;2023-08-24T13:59:27;2.67;;;2.20;;
67554;SDS011;54385;53.516;49.456;2023-08-24T14:01:56;3.13;;;2.20;;
67554;SDS011;54385;53.516;49.456;2023-08-24T14:04:24;3.17;;;2.40;;
67554;SDS011;54385;53.516;49.456;2023-08-24T14:06:51;2.63;;;2.20;;
67554;SDS011;54385;53.516;49.456;2023-08-24T14:09:19;4.22;;;2.22;;
67554;SDS011;54385;53.516;49.456;2023-08-24T14:11:46;2.63;;;1.98;;
67554;SDS011;54385;53.516;49.456;2023-08-24T14:14:13;3.67;;;2.28;;
67554;SDS011;54385;53.516;49.456;2023-08-24T14:16:40;3.90;;;2.47;;
67554;SDS011;54385;53.516;49.456;2023-08-24T14:19:07;3.45;;;2.13;;
67554;SDS011;54385;53.516;49.456;2023-08-24T14:21:34;2.95;;;2.10;;
67554;SDS011;54385;53.516;49.456;2023-08-24T14:24:01;3.72;;;2.50;;
67554;SDS011;54385;53.516;49.456;2023-08-24T14:26:28;3.78;;;2.30;;
67554;SDS011;54385;53.516;49.456;2023-08-24T14:28:55;2.92;;;2.25;;
67554;SDS011;54385;53.516;49.456;2023-08-24T14:31:25;2.75;;;1.98;;
67554;SDS011;54385;53.516;49.456;2023-08-24T14:33:55;3.97;;;2.30;;
67554;SDS011;54385;53.516;49.456;2023-08-24T14:36:23;3.25;;;2.13;;
67554;SDS011;54385;53.516;49.456;2023-08-24T14:38:50;3.45;;;2.20;;
67554;SDS011;54385;53.516;49.456;2023-08-24T14:41:19;4.10;;;2.03;;
67554;SDS011;54385;53.516;49.456;2023-08-24T14:43:46;3.22;;;2.17;;
67554;SDS011;54385;53.516;49.456;2023-08-24T14:46:13;3.83;;;2.08;;
67554;SDS011;54385;53.516;49.456;2023-08-24T14:48:40;2.53;;;2.13;;
67554;SDS011;54385;53.516;49.456;2023-08-24T14:51:06;3.92;;;2.10;;
67554;SDS011;54385;53.516;49.456;2023-08-24T14:53:33;2.38;;;1.90;;
67554;SDS011;54385;53.516;49.456;2023-08-24T14:55:59;2.50;;;2.00;;
67554;SDS011;54385;53.516;49.456;2023-08-24T14:58:26;3.28;;;2.30;;